Time;durP1;ratioP1;P1;durP2;ratioP2;P2;SDS_P1;SDS_P2;PMS_P1;PMS_P2;Temp;Humidity;BMP_temperature;BMP_pressure;BME280_temperature;BME280_humidity;BME280_pressure;Samples;Min_cycle;Max_cycle;Signal;HPM_P1;HPM_P2
2022/03/21 00:01:08;;;;;;;35.72;19.83;;;;;;;;;;5079887;28;20090;-60
2022/03/21 00:03:35;;;;;;;40.15;21.15;;;;;;;;;;5071718;28;20107;-59
2022/03/21 00:06:01;;;;;;;37.63;20.20;;;;;;;;;;5075712;28;20032;-60
2022/03/21 00:08:27;;;;;;;39.20;20.23;;;;;;;;;;5071588;28;20113;-59
2022/03/21 00:10:54;;;;;;;32.17;19.73;;;;;;;;;;5070189;28;20037;-60
2022/03/21 00:13:20;;;;;;;36.75;19.98;;;;;;;;;;5070302;28;20044;-59
2022/03/21 00:15:47;;;;;;;37.10;20.38;;;;;;;;;;5068986;28;20097;-59
2022/03/21 00:18:13;;;;;;;32.97;19.10;;;;;;;;;;5067496;28;20072;-59
2022/03/21 00:20:40;;;;;;;34.95;19.38;;;;;;;;;;5070195;28;20079;-60
2022/03/21 00:23:06;;;;;;;34.22;18.88;;;;;;;;;;5070260;28;20051;-59
2022/03/21 00:25:32;;;;;;;31.48;18.85;;;;;;;;;;5067961;28;20581;-60
2022/03/21 00:27:58;;;;;;;36.58;19.52;;;;;;;;;;5072689;28;20087;-60
2022/03/21 00:30:25;;;;;;;32.65;18.27;;;;;;;;;;5073167;28;20410;-60
2022/03/21 00:32:51;;;;;;;33.75;18.08;;;;;;;;;;5073558;28;20048;-60
2022/03/21 00:35:17;;;;;;;30.98;17.92;;;;;;;;;;5073182;28;20036;-61
2022/03/21 00:37:44;;;;;;;32.70;18.02;;;;;;;;;;5076617;28;20047;-61
2022/03/21 00:40:11;;;;;;;33.33;18.27;;;;;;;;;;5070203;28;20558;-59
2022/03/21 00:42:37;;;;;;;31.95;17.48;;;;;;;;;;5073374;28;20079;-59
2022/03/21 00:45:11;;;;;;;30.23;17.60;;;;;;;;;;5082439;28;20505;-59
2022/03/21 00:47:37;;;;;;;35.25;18.65;;;;;;;;;;5080064;28;20096;-60
2022/03/21 00:50:04;;;;;;;34.50;17.65;;;;;;;;;;5071642;28;20047;-59
2022/03/21 00:52:32;;;;;;;30.65;17.13;;;;;;;;;;5066533;28;20066;-59
2022/03/21 00:54:58;;;;;;;30.23;17.55;;;;;;;;;;5075982;28;20500;-60
2022/03/21 00:57:24;;;;;;;25.67;16.25;;;;;;;;;;5071198;28;20029;-60
2022/03/21 00:59:50;;;;;;;31.05;17.45;;;;;;;;;;5072912;28;20090;-59
2022/03/21 01:02:16;;;;;;;31.00;16.40;;;;;;;;;;5072629;28;20036;-59
2022/03/21 01:04:42;;;;;;;32.22;17.20;;;;;;;;;;5073039;28;20037;-59
2022/03/21 01:07:08;;;;;;;31.13;16.92;;;;;;;;;;5072600;28;20036;-59
2022/03/21 01:09:34;;;;;;;31.95;16.73;;;;;;;;;;5071314;28;20494;-59
2022/03/21 01:12:03;;;;;;;30.42;16.88;;;;;;;;;;5068421;28;20055;-59
2022/03/21 01:14:30;;;;;;;27.58;16.63;;;;;;;;;;5080984;28;20391;-59
2022/03/21 01:16:57;;;;;;;29.60;16.23;;;;;;;;;;5068481;28;20048;-59
2022/03/21 01:19:23;;;;;;;27.77;16.13;;;;;;;;;;5072755;28;20413;-60
2022/03/21 01:21:49;;;;;;;28.67;16.38;;;;;;;;;;5075406;28;20039;-59
2022/03/21 01:24:15;;;;;;;30.10;15.55;;;;;;;;;;5072654;28;20039;-59
2022/03/21 01:26:41;;;;;;;26.27;16.00;;;;;;;;;;5072819;28;20071;-59
2022/03/21 01:29:07;;;;;;;29.55;16.83;;;;;;;;;;5070019;28;20117;-59
2022/03/21 01:31:33;;;;;;;28.23;16.67;;;;;;;;;;5068618;28;20040;-59
2022/03/21 01:33:59;;;;;;;28.85;15.75;;;;;;;;;;5072871;28;20096;-59
2022/03/21 01:36:25;;;;;;;27.85;15.95;;;;;;;;;;5071952;28;20138;-60
2022/03/21 01:38:51;;;;;;;25.50;14.75;;;;;;;;;;5074556;28;20036;-60
2022/03/21 01:41:17;;;;;;;22.50;13.48;;;;;;;;;;5071084;28;20068;-60
2022/03/21 01:44:03;;;;;;;27.65;15.15;;;;;;;;;;5074213;28;20043;-59
2022/03/21 01:46:29;;;;;;;26.13;14.88;;;;;;;;;;5069283;28;20115;-59
2022/03/21 01:48:56;;;;;;;27.90;14.90;;;;;;;;;;5075101;28;20046;-59
2022/03/21 01:51:22;;;;;;;27.23;15.45;;;;;;;;;;5076432;28;20036;-59
2022/03/21 01:56:34;;;;;;;27.58;15.20;;;;;;;;;;5071407;28;20040;-59
2022/03/21 01:59:00;;;;;;;26.50;14.32;;;;;;;;;;5076348;28;20055;-59
2022/03/21 02:01:26;;;;;;;26.52;14.30;;;;;;;;;;5069340;28;20068;-59
2022/03/21 02:03:52;;;;;;;25.33;15.60;;;;;;;;;;5073221;28;20037;-59
2022/03/21 02:06:18;;;;;;;30.63;15.10;;;;;;;;;;5073849;28;20048;-59
2022/03/21 02:08:45;;;;;;;25.92;14.85;;;;;;;;;;5069715;28;20048;-59
2022/03/21 02:11:11;;;;;;;26.75;15.65;;;;;;;;;;5069071;28;20493;-60
2022/03/21 02:13:37;;;;;;;28.98;15.57;;;;;;;;;;5074307;28;20130;-60
2022/03/21 02:16:04;;;;;;;28.02;15.63;;;;;;;;;;5075041;28;20075;-59
2022/03/21 02:18:31;;;;;;;23.55;14.13;;;;;;;;;;5066295;28;20559;-59
2022/03/21 02:20:59;;;;;;;28.08;14.43;;;;;;;;;;5071853;28;20041;-59
2022/03/21 02:23:49;;;;;;;22.73;13.70;;;;;;;;;;5072507;28;20508;-59
2022/03/21 02:26:16;;;;;;;26.23;14.18;;;;;;;;;;5072460;28;20045;-59
2022/03/21 02:28:43;;;;;;;24.70;15.05;;;;;;;;;;5072271;28;20051;-59
2022/03/21 02:31:10;;;;;;;29.13;14.40;;;;;;;;;;5076563;28;20071;-60
2022/03/21 02:33:36;;;;;;;31.20;15.13;;;;;;;;;;5070825;28;20525;-59
2022/03/21 02:36:03;;;;;;;27.83;14.93;;;;;;;;;;5066711;28;20045;-60
2022/03/21 02:38:29;;;;;;;24.88;14.65;;;;;;;;;;5068439;28;20040;-60
2022/03/21 02:40:55;;;;;;;26.48;14.45;;;;;;;;;;5066884;28;20660;-61
2022/03/21 02:43:21;;;;;;;27.30;14.85;;;;;;;;;;5068136;28;20033;-60
2022/03/21 02:45:47;;;;;;;25.17;13.90;;;;;;;;;;5068254;28;20045;-60
2022/03/21 02:48:14;;;;;;;29.98;15.65;;;;;;;;;;5069528;28;20156;-60
2022/03/21 02:50:40;;;;;;;29.02;15.05;;;;;;;;;;5067289;28;20044;-60
2022/03/21 02:53:06;;;;;;;26.75;14.35;;;;;;;;;;5068677;28;20036;-60
2022/03/21 02:55:33;;;;;;;24.33;14.18;;;;;;;;;;5070930;28;20037;-60
2022/03/21 02:57:59;;;;;;;26.80;14.00;;;;;;;;;;5067215;28;20443;-60
2022/03/21 03:00:49;;;;;;;24.98;13.98;;;;;;;;;;5069250;28;20108;-60
2022/03/21 03:03:15;;;;;;;27.65;13.63;;;;;;;;;;5062033;28;20102;-60
2022/03/21 03:05:41;;;;;;;25.65;13.38;;;;;;;;;;5066600;28;20490;-59
2022/03/21 03:08:07;;;;;;;25.40;14.27;;;;;;;;;;5069717;28;20155;-59
2022/03/21 03:10:33;;;;;;;22.30;13.10;;;;;;;;;;5072624;28;20111;-60
2022/03/21 03:12:59;;;;;;;22.95;13.38;;;;;;;;;;5072484;28;20041;-60
2022/03/21 03:15:25;;;;;;;26.25;14.00;;;;;;;;;;5073903;28;20460;-59
2022/03/21 03:17:51;;;;;;;26.63;14.35;;;;;;;;;;5073601;28;20037;-59
2022/03/21 03:20:17;;;;;;;23.95;13.55;;;;;;;;;;5070617;28;20048;-59
2022/03/21 03:22:43;;;;;;;24.45;12.90;;;;;;;;;;5073119;28;20043;-60
2022/03/21 03:25:09;;;;;;;26.35;14.27;;;;;;;;;;5074761;28;20041;-59
2022/03/21 03:27:36;;;;;;;26.55;15.00;;;;;;;;;;5071573;28;20082;-59
2022/03/21 03:30:02;;;;;;;24.80;13.10;;;;;;;;;;5066627;28;20542;-59
2022/03/21 03:32:29;;;;;;;21.70;12.95;;;;;;;;;;5072144;28;20421;-60
2022/03/21 03:34:55;;;;;;;23.15;14.02;;;;;;;;;;5071081;28;20085;-59
2022/03/21 03:37:21;;;;;;;24.75;13.73;;;;;;;;;;5069772;28;20509;-59
2022/03/21 03:39:47;;;;;;;26.27;14.00;;;;;;;;;;5071148;28;20036;-59
2022/03/21 03:42:13;;;;;;;26.02;14.65;;;;;;;;;;5072480;28;20036;-59
2022/03/21 03:44:39;;;;;;;25.13;14.52;;;;;;;;;;5070903;28;20368;-59
2022/03/21 03:47:06;;;;;;;29.30;14.73;;;;;;;;;;5072602;28;20040;-59
2022/03/21 03:49:32;;;;;;;28.77;14.48;;;;;;;;;;5070125;28;20032;-60
2022/03/21 03:51:58;;;;;;;24.70;14.43;;;;;;;;;;5072920;28;20525;-60
2022/03/21 03:54:24;;;;;;;19.80;11.88;;;;;;;;;;5072327;28;20036;-60
2022/03/21 03:56:50;;;;;;;19.50;11.90;;;;;;;;;;5072800;28;20036;-60
2022/03/21 03:59:16;;;;;;;22.42;13.80;;;;;;;;;;5084320;28;20066;-60
2022/03/21 04:01:42;;;;;;;21.60;12.70;;;;;;;;;;5091075;28;20040;-60
2022/03/21 04:04:08;;;;;;;22.13;12.90;;;;;;;;;;5094350;28;20050;-60
2022/03/21 04:06:34;;;;;;;22.80;12.48;;;;;;;;;;5086330;28;20062;-60
2022/03/21 04:09:00;;;;;;;25.73;14.05;;;;;;;;;;5079016;28;20448;-60
2022/03/21 04:11:26;;;;;;;23.88;12.70;;;;;;;;;;5081466;28;20040;-60
2022/03/21 04:13:53;;;;;;;23.55;13.75;;;;;;;;;;5073726;28;20155;-60
2022/03/21 04:16:19;;;;;;;29.77;16.15;;;;;;;;;;5082489;28;20114;-60
2022/03/21 04:18:45;;;;;;;19.35;12.40;;;;;;;;;;5076200;28;20040;-61
2022/03/21 04:21:11;;;;;;;19.50;12.35;;;;;;;;;;5077430;28;20052;-58
2022/03/21 04:23:37;;;;;;;22.08;12.55;;;;;;;;;;5090328;28;20618;-58
2022/03/21 04:26:03;;;;;;;20.23;12.20;;;;;;;;;;5077555;28;20111;-58
2022/03/21 04:28:29;;;;;;;20.55;12.18;;;;;;;;;;5073524;28;20112;-58
2022/03/21 04:30:55;;;;;;;24.48;13.73;;;;;;;;;;5081752;28;20040;-59
2022/03/21 04:33:21;;;;;;;23.23;13.60;;;;;;;;;;5092224;28;20047;-59
2022/03/21 04:35:47;;;;;;;26.25;15.57;;;;;;;;;;5073373;28;20123;-59
2022/03/21 04:38:14;;;;;;;20.95;11.77;;;;;;;;;;5082689;28;20401;-59
2022/03/21 04:40:44;;;;;;;23.83;12.93;;;;;;;;;;5072898;28;20119;-59
2022/03/21 04:43:10;;;;;;;23.73;13.05;;;;;;;;;;5072417;28;20094;-59
2022/03/21 04:45:36;;;;;;;24.13;13.00;;;;;;;;;;5078876;28;20039;-60
2022/03/21 04:48:03;;;;;;;24.85;14.15;;;;;;;;;;5072444;28;20048;-59
2022/03/21 04:50:30;;;;;;;24.13;13.32;;;;;;;;;;5091305;28;20042;-59
2022/03/21 04:52:56;;;;;;;26.50;14.82;;;;;;;;;;5093998;28;20073;-59
2022/03/21 04:55:22;;;;;;;27.42;14.07;;;;;;;;;;5074381;28;20044;-59
2022/03/21 04:57:48;;;;;;;25.38;14.15;;;;;;;;;;5077033;28;20374;-60
2022/03/21 05:00:14;;;;;;;25.90;14.57;;;;;;;;;;5071622;28;20040;-60
2022/03/21 05:02:41;;;;;;;25.42;15.05;;;;;;;;;;5069490;28;20032;-59
2022/03/21 05:05:08;;;;;;;26.35;14.90;;;;;;;;;;5076395;28;20119;-59
2022/03/21 05:07:38;;;;;;;23.98;13.88;;;;;;;;;;5071785;28;20040;-59
2022/03/21 05:10:05;;;;;;;25.23;14.55;;;;;;;;;;5086803;28;20394;-59
2022/03/21 05:12:31;;;;;;;28.33;14.63;;;;;;;;;;5080164;28;20082;-59
2022/03/21 05:14:57;;;;;;;24.83;13.70;;;;;;;;;;5076645;28;20072;-59
2022/03/21 05:17:22;;;;;;;24.27;14.02;;;;;;;;;;5078644;28;20151;-59
2022/03/21 05:19:48;;;;;;;24.20;14.15;;;;;;;;;;5076487;28;20552;-59
2022/03/21 05:22:14;;;;;;;20.40;12.85;;;;;;;;;;5073278;28;20037;-59
2022/03/21 05:35:55;;;;;;;13.15;8.07;;;;;;;;;;5072048;28;20044;-59
2022/03/21 05:38:22;;;;;;;;;;;;;;;;;;5076448;28;20036;-59
2022/03/21 05:40:48;;;;;;;15.18;9.57;;;;;;;;;;5092619;28;20262;-59
2022/03/21 05:43:14;;;;;;;12.20;8.77;;;;;;;;;;5085678;22;20135;-60
2022/03/21 05:45:41;;;;;;;12.98;8.90;;;;;;;;;;5071637;28;20123;-59
2022/03/21 05:50:52;;;;;;;102.55;15.15;;;;;;;;;;5072242;28;20048;-60
2022/03/21 05:53:18;;;;;;;137.48;13.90;;;;;;;;;;5071654;28;20044;-59
2022/03/21 05:55:45;;;;;;;41.70;13.13;;;;;;;;;;5071957;28;20457;-59
2022/03/21 05:58:12;;;;;;;48.28;14.75;;;;;;;;;;5070924;28;20096;-59
2022/03/21 06:00:38;;;;;;;86.45;10.30;;;;;;;;;;5071017;28;20436;-60
2022/03/21 06:03:04;;;;;;;109.80;15.63;;;;;;;;;;5062716;28;20083;-60
2022/03/21 06:05:31;;;;;;;29.42;8.50;;;;;;;;;;5071469;28;20036;-60
2022/03/21 06:07:58;;;;;;;95.63;11.90;;;;;;;;;;5070921;28;20036;-60
2022/03/21 06:10:24;;;;;;;17.48;9.70;;;;;;;;;;5071344;28;20048;-59
2022/03/21 06:12:50;;;;;;;14.93;9.40;;;;;;;;;;5070681;28;20040;-60
2022/03/21 06:15:16;;;;;;;13.35;7.80;;;;;;;;;;5070649;28;20044;-60
2022/03/21 06:17:43;;;;;;;8.77;6.70;;;;;;;;;;5071382;28;20036;-60
2022/03/21 06:20:14;;;;;;;12.85;8.48;;;;;;;;;;5070939;28;20040;-60
2022/03/21 06:22:40;;;;;;;13.38;8.38;;;;;;;;;;5051778;28;20450;-60
2022/03/21 06:25:06;;;;;;;16.35;9.43;;;;;;;;;;5066135;28;20093;-60
2022/03/21 06:27:37;;;;;;;37.50;11.85;;;;;;;;;;5068368;28;20085;-60
2022/03/21 06:30:03;;;;;;;35.08;10.73;;;;;;;;;;5071890;28;20166;-60
2022/03/21 06:32:29;;;;;;;20.48;10.32;;;;;;;;;;5070748;28;20033;-60
2022/03/21 06:34:55;;;;;;;21.98;9.85;;;;;;;;;;5070936;28;20039;-60
2022/03/21 06:37:21;;;;;;;13.77;9.48;;;;;;;;;;5071244;28;20082;-60
2022/03/21 06:39:47;;;;;;;12.55;8.25;;;;;;;;;;5070682;28;20094;-60
2022/03/21 06:42:14;;;;;;;14.60;8.02;;;;;;;;;;5069213;28;20444;-60
2022/03/21 06:44:41;;;;;;;14.88;8.63;;;;;;;;;;5071457;28;20402;-60
2022/03/21 06:47:07;;;;;;;12.95;8.35;;;;;;;;;;5052410;28;20036;-60
2022/03/21 06:49:33;;;;;;;13.05;8.82;;;;;;;;;;5071182;28;20047;-60
2022/03/21 06:52:04;;;;;;;13.77;8.25;;;;;;;;;;5070162;28;20127;-60
2022/03/21 06:54:30;;;;;;;13.63;7.68;;;;;;;;;;5069830;28;20550;-60
2022/03/21 06:56:56;;;;;;;10.93;8.23;;;;;;;;;;5069986;28;20051;-60
2022/03/21 06:59:22;;;;;;;14.20;8.25;;;;;;;;;;5069929;28;20556;-60
2022/03/21 07:01:48;;;;;;;12.40;8.77;;;;;;;;;;5069184;28;20083;-60
2022/03/21 07:04:14;;;;;;;17.60;9.90;;;;;;;;;;5069796;28;20036;-60
2022/03/21 07:06:40;;;;;;;13.35;9.70;;;;;;;;;;5070243;28;20040;-60
2022/03/21 07:09:06;;;;;;;17.17;9.48;;;;;;;;;;5070069;28;20139;-60
2022/03/21 07:11:34;;;;;;;18.73;11.57;;;;;;;;;;5070574;28;20549;-60
2022/03/21 07:14:01;;;;;;;18.13;11.95;;;;;;;;;;5068379;28;20044;-60
2022/03/21 07:16:27;;;;;;;21.80;12.77;;;;;;;;;;5061250;28;20110;-60
2022/03/21 07:18:53;;;;;;;24.83;15.23;;;;;;;;;;5070365;28;20052;-60
2022/03/21 07:21:19;;;;;;;28.75;16.00;;;;;;;;;;5069486;28;20604;-60
2022/03/21 07:23:46;;;;;;;25.60;15.13;;;;;;;;;;5069824;28;20044;-60
2022/03/21 07:26:12;;;;;;;18.35;11.73;;;;;;;;;;5068654;28;20039;-60
2022/03/21 07:28:38;;;;;;;28.02;16.40;;;;;;;;;;5068881;28;20036;-60
2022/03/21 07:31:04;;;;;;;28.95;16.15;;;;;;;;;;5071104;28;20048;-60
2022/03/21 07:33:30;;;;;;;25.90;16.45;;;;;;;;;;5068413;28;20043;-59
2022/03/21 07:35:56;;;;;;;27.90;16.73;;;;;;;;;;5069197;28;20040;-59
2022/03/21 07:38:22;;;;;;;29.85;17.58;;;;;;;;;;5068735;28;20605;-60
2022/03/21 07:40:49;;;;;;;25.75;15.88;;;;;;;;;;5052720;28;20040;-60
2022/03/21 07:43:15;;;;;;;27.10;17.00;;;;;;;;;;5070438;28;20080;-60
2022/03/21 07:48:29;;;;;;;29.02;17.20;;;;;;;;;;5063907;28;20517;-59
2022/03/21 07:50:55;;;;;;;30.75;17.67;;;;;;;;;;5064922;28;20124;-60
2022/03/21 07:53:21;;;;;;;30.42;18.25;;;;;;;;;;5065314;28;20119;-60
2022/03/21 07:55:47;;;;;;;30.05;18.33;;;;;;;;;;5072200;28;20037;-60
2022/03/21 07:58:13;;;;;;;32.60;18.27;;;;;;;;;;5073336;28;20033;-59
2022/03/21 08:00:41;;;;;;;31.35;17.67;;;;;;;;;;5074576;28;20089;-60
2022/03/21 08:03:09;;;;;;;34.13;19.45;;;;;;;;;;5071373;28;20051;-60
2022/03/21 08:05:35;;;;;;;35.97;18.60;;;;;;;;;;5072888;28;20425;-60
2022/03/21 08:08:01;;;;;;;32.33;18.15;;;;;;;;;;5069842;28;20502;-61
2022/03/21 08:10:29;;;;;;;33.78;17.95;;;;;;;;;;5069163;28;20456;-60
2022/03/21 08:12:56;;;;;;;34.58;17.85;;;;;;;;;;5071765;28;20055;-60
2022/03/21 08:15:22;;;;;;;34.03;17.33;;;;;;;;;;5073749;28;20113;-60
2022/03/21 08:17:59;;;;;;;30.48;17.63;;;;;;;;;;5073465;28;20032;-60
2022/03/21 08:20:33;;;;;;;31.70;17.42;;;;;;;;;;5074248;28;20092;-60
2022/03/21 08:22:59;;;;;;;30.92;17.65;;;;;;;;;;5071642;28;20044;-60
2022/03/21 08:25:26;;;;;;;31.23;17.13;;;;;;;;;;5067167;28;20045;-60
2022/03/21 08:27:52;;;;;;;28.38;16.48;;;;;;;;;;5072518;28;20044;-60
2022/03/21 08:30:18;;;;;;;30.88;16.05;;;;;;;;;;5072168;28;20127;-60
2022/03/21 08:32:48;;;;;;;32.83;16.10;;;;;;;;;;5070991;28;20052;-60
2022/03/21 08:35:15;;;;;;;28.02;15.73;;;;;;;;;;5073723;28;20094;-61
2022/03/21 08:37:41;;;;;;;30.27;15.38;;;;;;;;;;5072956;28;20032;-61
2022/03/21 08:40:07;;;;;;;25.67;14.27;;;;;;;;;;5073231;28;20036;-60
2022/03/21 08:42:33;;;;;;;26.00;14.98;;;;;;;;;;5069019;28;20036;-61
2022/03/21 08:44:59;;;;;;;24.02;14.55;;;;;;;;;;5066196;28;20181;-60
2022/03/21 08:47:25;;;;;;;24.58;14.88;;;;;;;;;;5075504;28;20048;-61
2022/03/21 08:49:51;;;;;;;26.10;14.45;;;;;;;;;;5073287;28;20071;-61
2022/03/21 08:52:19;;;;;;;25.60;15.23;;;;;;;;;;5072264;28;20064;-60
2022/03/21 08:54:45;;;;;;;27.08;16.20;;;;;;;;;;5073239;28;20078;-61
2022/03/21 08:57:11;;;;;;;26.67;14.23;;;;;;;;;;5071921;28;20491;-61
2022/03/21 08:59:37;;;;;;;24.05;14.65;;;;;;;;;;5072504;28;20394;-61
2022/03/21 09:02:04;;;;;;;26.58;14.77;;;;;;;;;;5071692;28;20545;-61
2022/03/21 09:04:30;;;;;;;22.92;14.55;;;;;;;;;;5071397;28;20051;-61
2022/03/21 09:06:56;;;;;;;29.80;14.80;;;;;;;;;;5070017;28;20056;-61
2022/03/21 09:09:22;;;;;;;27.50;14.48;;;;;;;;;;5069950;28;20052;-61
2022/03/21 09:11:48;;;;;;;25.77;15.65;;;;;;;;;;5072903;28;20036;-61
2022/03/21 09:14:14;;;;;;;25.25;14.02;;;;;;;;;;5070139;28;20032;-61
2022/03/21 09:16:42;;;;;;;27.48;13.90;;;;;;;;;;5071045;28;20036;-60
2022/03/21 09:19:09;;;;;;;23.02;13.65;;;;;;;;;;5072461;28;20083;-61
2022/03/21 09:21:35;;;;;;;25.27;14.18;;;;;;;;;;5073154;28;20037;-60
2022/03/21 09:24:01;;;;;;;29.67;15.98;;;;;;;;;;5073007;28;20041;-60
2022/03/21 09:26:27;;;;;;;26.17;15.48;;;;;;;;;;5071809;28;20047;-60
2022/03/21 09:28:59;;;;;;;27.60;15.95;;;;;;;;;;5072210;28;20059;-61
2022/03/21 09:31:26;;;;;;;31.00;15.85;;;;;;;;;;5034978;28;20557;-61
2022/03/21 09:33:52;;;;;;;29.85;16.95;;;;;;;;;;5052989;28;20067;-60
2022/03/21 09:36:18;;;;;;;28.00;15.52;;;;;;;;;;5054617;28;20044;-61
2022/03/21 09:38:44;;;;;;;29.85;17.63;;;;;;;;;;5072351;28;20033;-61
2022/03/21 09:41:13;;;;;;;28.13;16.77;;;;;;;;;;5072744;28;20089;-61
2022/03/21 09:43:39;;;;;;;26.88;16.77;;;;;;;;;;5072095;28;20515;-61
2022/03/21 09:46:07;;;;;;;29.42;16.95;;;;;;;;;;5070841;28;20079;-61
2022/03/21 09:48:34;;;;;;;28.25;17.50;;;;;;;;;;5072265;28;20093;-61
2022/03/21 09:51:02;;;;;;;28.48;17.67;;;;;;;;;;5072693;28;20036;-60
2022/03/21 09:53:28;;;;;;;33.58;17.60;;;;;;;;;;5054590;28;20097;-61
2022/03/21 09:55:54;;;;;;;33.35;19.42;;;;;;;;;;5072207;28;20072;-61
2022/03/21 09:58:21;;;;;;;31.77;18.70;;;;;;;;;;5071301;28;20040;-61
2022/03/21 10:00:49;;;;;;;30.38;18.73;;;;;;;;;;5071798;28;20131;-60
2022/03/21 10:03:15;;;;;;;34.65;18.27;;;;;;;;;;5072217;28;20040;-61
2022/03/21 10:05:43;;;;;;;32.10;19.15;;;;;;;;;;5072095;28;20036;-60
2022/03/21 10:08:18;;;;;;;31.13;19.40;;;;;;;;;;5070841;28;20048;-60
2022/03/21 10:10:53;;;;;;;34.15;18.73;;;;;;;;;;5072216;28;20071;-60
2022/03/21 10:13:20;;;;;;;32.53;18.33;;;;;;;;;;5071644;28;20482;-60
2022/03/21 10:15:46;;;;;;;32.00;19.33;;;;;;;;;;5071557;28;20075;-61
2022/03/21 10:18:12;;;;;;;33.67;19.08;;;;;;;;;;5058054;28;20047;-60
2022/03/21 10:20:40;;;;;;;30.13;19.10;;;;;;;;;;5071124;28;20486;-60
2022/03/21 10:23:24;;;;;;;35.42;19.60;;;;;;;;;;5071607;28;20044;-60
2022/03/21 10:25:50;;;;;;;33.63;20.48;;;;;;;;;;5070889;28;20081;-60
2022/03/21 10:28:33;;;;;;;35.65;19.17;;;;;;;;;;5070532;28;20083;-60
2022/03/21 10:30:59;;;;;;;32.28;18.83;;;;;;;;;;5071677;28;20050;-60
2022/03/21 10:33:25;;;;;;;35.13;20.08;;;;;;;;;;5071642;28;20505;-60
2022/03/21 10:35:51;;;;;;;37.08;20.08;;;;;;;;;;5069722;28;20062;-61
2022/03/21 10:38:30;;;;;;;34.53;20.92;;;;;;;;;;5061803;28;20102;-60
2022/03/21 10:40:57;;;;;;;34.80;20.35;;;;;;;;;;5071225;28;20119;-61
2022/03/21 10:43:25;;;;;;;35.55;19.58;;;;;;;;;;5071370;28;20113;-60
2022/03/21 10:45:52;;;;;;;34.65;20.00;;;;;;;;;;5069232;28;20044;-60
2022/03/21 10:48:19;;;;;;;36.75;19.60;;;;;;;;;;5071551;28;20040;-61
2022/03/21 10:50:46;;;;;;;39.08;20.30;;;;;;;;;;5071521;28;20047;-60
2022/03/21 10:53:16;;;;;;;40.80;20.80;;;;;;;;;;5070671;28;20215;-60
2022/03/21 10:55:46;;;;;;;34.88;20.65;;;;;;;;;;5068223;28;20482;-60
2022/03/21 10:58:13;;;;;;;38.45;20.27;;;;;;;;;;5068487;28;20040;-60
2022/03/21 11:00:40;;;;;;;36.65;19.85;;;;;;;;;;5071162;28;20093;-60
2022/03/21 11:03:09;;;;;;;35.30;20.08;;;;;;;;;;5053675;28;20078;-60
2022/03/21 11:05:39;;;;;;;35.38;20.35;;;;;;;;;;5070544;28;20037;-61
2022/03/21 11:08:06;;;;;;;36.35;20.00;;;;;;;;;;5071234;28;20437;-61
2022/03/21 11:10:32;;;;;;;37.28;20.85;;;;;;;;;;5071813;28;20491;-61
2022/03/21 11:13:01;;;;;;;33.80;19.60;;;;;;;;;;5071267;28;20079;-61
2022/03/21 11:15:27;;;;;;;38.53;19.85;;;;;;;;;;5069189;28;20025;-61
2022/03/21 11:17:55;;;;;;;36.10;21.25;;;;;;;;;;5070610;28;20039;-61
2022/03/21 11:20:21;;;;;;;35.70;20.27;;;;;;;;;;5071284;28;20134;-61
2022/03/21 11:22:47;;;;;;;41.97;21.42;;;;;;;;;;5071392;28;20040;-61
2022/03/21 11:25:14;;;;;;;37.75;20.92;;;;;;;;;;5070106;28;20512;-61
2022/03/21 11:27:46;;;;;;;34.17;20.83;;;;;;;;;;5067608;28;20490;-61
2022/03/21 11:30:15;;;;;;;36.25;20.65;;;;;;;;;;5064303;28;20403;-61
2022/03/21 11:32:54;;;;;;;33.97;19.90;;;;;;;;;;5074807;28;20063;-61
2022/03/21 11:35:28;;;;;;;34.42;20.67;;;;;;;;;;5074833;28;20559;-61
2022/03/21 11:37:55;;;;;;;35.50;20.77;;;;;;;;;;5073449;28;20041;-61
2022/03/21 11:40:28;;;;;;;34.80;20.63;;;;;;;;;;5074195;28;20058;-61
2022/03/21 11:42:56;;;;;;;38.65;21.10;;;;;;;;;;5093387;22;20048;-61
2022/03/21 11:45:33;;;;;;;34.08;20.95;;;;;;;;;;5094698;28;20194;-61
2022/03/21 11:48:17;;;;;;;35.83;21.15;;;;;;;;;;5093242;28;20044;-61
2022/03/21 11:50:43;;;;;;;38.20;21.92;;;;;;;;;;5086856;28;20486;-61
2022/03/21 11:53:13;;;;;;;41.25;21.65;;;;;;;;;;5094830;28;20046;-61
2022/03/21 11:55:43;;;;;;;32.28;19.95;;;;;;;;;;5094613;28;20493;-61
2022/03/21 11:58:28;;;;;;;39.78;21.35;;;;;;;;;;5093260;28;20109;-61
2022/03/21 12:01:32;;;;;;;36.88;21.67;;;;;;;;;;5101394;28;20043;-61
2022/03/21 12:04:16;;;;;;;36.65;21.67;;;;;;;;;;5052041;28;20513;-61
2022/03/21 12:06:42;;;;;;;41.70;21.98;;;;;;;;;;5042684;28;20033;-61
2022/03/21 12:09:12;;;;;;;36.85;21.00;;;;;;;;;;5076926;28;20051;-61
2022/03/21 12:11:38;;;;;;;38.50;21.00;;;;;;;;;;5094123;28;20051;-61
2022/03/21 12:14:19;;;;;;;37.78;21.45;;;;;;;;;;5094845;28;20040;-61
2022/03/21 12:16:46;;;;;;;38.88;21.58;;;;;;;;;;5092001;28;20028;-59
2022/03/21 12:19:12;;;;;;;36.60;20.83;;;;;;;;;;5094258;28;20048;-59
2022/03/21 12:21:38;;;;;;;40.00;21.08;;;;;;;;;;5094210;28;20028;-59
2022/03/21 12:24:17;;;;;;;37.42;21.88;;;;;;;;;;5093884;28;20042;-60
2022/03/21 12:26:50;;;;;;;36.83;21.50;;;;;;;;;;5093032;28;20029;-60
2022/03/21 12:29:33;;;;;;;36.63;21.75;;;;;;;;;;5094181;28;20051;-59
2022/03/21 12:32:17;;;;;;;37.45;21.27;;;;;;;;;;5092331;28;20044;-61
2022/03/21 12:34:44;;;;;;;36.58;20.88;;;;;;;;;;5087078;28;20481;-60
2022/03/21 12:37:24;;;;;;;39.08;20.85;;;;;;;;;;5093928;28;20059;-60
2022/03/21 12:39:50;;;;;;;37.33;20.35;;;;;;;;;;5093771;28;20482;-60
2022/03/21 12:42:18;;;;;;;37.05;21.33;;;;;;;;;;5092653;28;20042;-60
2022/03/21 12:44:44;;;;;;;34.22;20.15;;;;;;;;;;5093835;28;20031;-60
2022/03/21 12:47:10;;;;;;;36.85;21.17;;;;;;;;;;5094001;28;20374;-60
2022/03/21 12:49:52;;;;;;;34.67;22.33;;;;;;;;;;5093976;28;20032;-60
2022/03/21 12:52:28;;;;;;;37.20;22.35;;;;;;;;;;5092419;28;20519;-60
2022/03/21 12:54:55;;;;;;;40.92;21.55;;;;;;;;;;5088850;28;20043;-60
2022/03/21 12:57:21;;;;;;;38.85;22.85;;;;;;;;;;5092323;28;20113;-61
2022/03/21 12:59:47;;;;;;;37.17;22.23;;;;;;;;;;5113552;28;20040;-60
2022/03/21 13:02:25;;;;;;;32.97;21.60;;;;;;;;;;5104920;28;20116;-61
2022/03/21 13:10:34;;;;;;;33.85;21.73;;;;;;;;;;5081225;28;20118;-61
2022/03/21 13:13:00;;;;;;;36.08;22.35;;;;;;;;;;5092241;28;20150;-60
2022/03/21 13:15:27;;;;;;;36.58;21.77;;;;;;;;;;5092913;28;20093;-61
2022/03/21 13:17:57;;;;;;;40.42;22.33;;;;;;;;;;5092704;28;20043;-61
2022/03/21 13:20:27;;;;;;;36.85;22.92;;;;;;;;;;5093295;28;20464;-60
2022/03/21 13:22:53;;;;;;;34.20;21.65;;;;;;;;;;5084470;28;20091;-61
2022/03/21 13:25:30;;;;;;;39.35;22.10;;;;;;;;;;5091913;28;20047;-61
2022/03/21 13:28:06;;;;;;;34.70;21.52;;;;;;;;;;5091445;28;20475;-61
2022/03/21 13:30:32;;;;;;;36.58;20.52;;;;;;;;;;5084423;28;20058;-61
2022/03/21 13:32:58;;;;;;;40.08;22.02;;;;;;;;;;5091456;28;20477;-60
2022/03/21 13:35:24;;;;;;;34.55;21.40;;;;;;;;;;5091174;28;20531;-60
2022/03/21 13:38:03;;;;;;;43.22;22.08;;;;;;;;;;5083204;28;20032;-60
2022/03/21 13:40:29;;;;;;;37.35;21.42;;;;;;;;;;5087216;28;20047;-60
2022/03/21 13:42:55;;;;;;;33.92;21.52;;;;;;;;;;5092322;28;20450;-61
2022/03/21 13:45:22;;;;;;;33.53;21.98;;;;;;;;;;5093166;28;20040;-60
2022/03/21 13:47:56;;;;;;;35.28;21.02;;;;;;;;;;5081635;28;20048;-60
2022/03/21 13:50:30;;;;;;;38.28;22.98;;;;;;;;;;5092143;28;20040;-60
2022/03/21 13:52:58;;;;;;;33.70;21.85;;;;;;;;;;5091523;28;20036;-60
2022/03/21 13:55:27;;;;;;;35.97;21.38;;;;;;;;;;5092338;28;20448;-61
2022/03/21 13:57:54;;;;;;;37.60;22.45;;;;;;;;;;5090920;28;20039;-61
2022/03/21 14:00:28;;;;;;;34.92;22.20;;;;;;;;;;5091207;28;20386;-61
2022/03/21 14:02:54;;;;;;;35.63;22.15;;;;;;;;;;5092595;28;20489;-60
2022/03/21 14:05:27;;;;;;;35.35;21.95;;;;;;;;;;5092456;28;20119;-60
2022/03/21 14:08:08;;;;;;;33.47;21.58;;;;;;;;;;5091219;28;20444;-60
2022/03/21 14:10:37;;;;;;;37.78;20.95;;;;;;;;;;5075069;28;20078;-61
2022/03/21 14:13:03;;;;;;;37.28;23.35;;;;;;;;;;5069466;28;20069;-60
2022/03/21 14:15:30;;;;;;;36.33;20.92;;;;;;;;;;5092393;28;20040;-60
2022/03/21 14:17:55;;;;;;;37.92;22.02;;;;;;;;;;5089512;28;20126;-60
2022/03/21 14:20:21;;;;;;;38.53;23.15;;;;;;;;;;5092530;28;20044;-60
2022/03/21 14:22:48;;;;;;;41.03;23.50;;;;;;;;;;5090749;28;20122;-60
2022/03/21 14:28:00;;;;;;;37.65;23.55;;;;;;;;;;5090985;28;20040;-60
2022/03/21 14:30:26;;;;;;;34.35;22.13;;;;;;;;;;5091418;28;20043;-60
2022/03/21 14:32:52;;;;;;;39.72;23.42;;;;;;;;;;5092160;28;20040;-60
2022/03/21 14:35:18;;;;;;;36.28;24.05;;;;;;;;;;5092219;28;20100;-60
2022/03/21 14:37:44;;;;;;;40.13;23.08;;;;;;;;;;5083520;28;20035;-60
2022/03/21 14:40:12;;;;;;;35.75;23.00;;;;;;;;;;5089113;28;20040;-60
2022/03/21 14:42:38;;;;;;;36.40;23.30;;;;;;;;;;5091369;28;20517;-60
2022/03/21 14:45:05;;;;;;;37.85;23.35;;;;;;;;;;5091436;28;20545;-60
2022/03/21 14:47:31;;;;;;;38.97;23.13;;;;;;;;;;5082015;28;20566;-60
2022/03/21 14:49:57;;;;;;;47.15;24.33;;;;;;;;;;5092029;28;20510;-60